sensor_id;sensor_type;location;lat;lon;timestamp;temperature;humidity
30473;DHT22;17263;48.160;11.452;2023-03-14T00:01:10;10.20;99.90
30473;DHT22;17263;48.160;11.452;2023-03-14T00:03:37;10.20;99.90
30473;DHT22;17263;48.160;11.452;2023-03-14T00:06:04;10.10;99.90
30473;DHT22;17263;48.160;11.452;2023-03-14T00:08:30;10.20;99.90
30473;DHT22;17263;48.160;11.452;2023-03-14T00:10:56;10.10;99.90
30473;DHT22;17263;48.160;11.452;2023-03-14T00:13:24;10.10;99.90
30473;DHT22;17263;48.160;11.452;2023-03-14T00:15:50;10.10;99.90
30473;DHT22;17263;48.160;11.452;2023-03-14T00:18:16;10.20;99.90
30473;DHT22;17263;48.160;11.452;2023-03-14T00:20:42;10.10;99.90
30473;DHT22;17263;48.160;11.452;2023-03-14T00:23:08;10.10;99.90
30473;DHT22;17263;48.160;11.452;2023-03-14T00:25:35;10.10;99.90
30473;DHT22;17263;48.160;11.452;2023-03-14T00:28:01;10.10;99.90
30473;DHT22;17263;48.160;11.452;2023-03-14T00:30:27;10.10;99.90
30473;DHT22;17263;48.160;11.452;2023-03-14T00:32:53;10.20;99.90
30473;DHT22;17263;48.160;11.452;2023-03-14T00:35:19;10.20;99.90
30473;DHT22;17263;48.160;11.452;2023-03-14T00:37:45;10.20;99.90
30473;DHT22;17263;48.160;11.452;2023-03-14T00:40:11;10.10;99.90
30473;DHT22;17263;48.160;11.452;2023-03-14T00:42:37;10.10;99.90
30473;DHT22;17263;48.160;11.452;2023-03-14T00:45:03;10.10;99.90
30473;DHT22;17263;48.160;11.452;2023-03-14T00:47:29;10.20;99.90
30473;DHT22;17263;48.160;11.452;2023-03-14T00:49:55;10.20;99.90
30473;DHT22;17263;48.160;11.452;2023-03-14T00:52:22;10.20;99.90
30473;DHT22;17263;48.160;11.452;2023-03-14T00:54:48;10.20;99.90
30473;DHT22;17263;48.160;11.452;2023-03-14T00:57:14;10.20;99.90
30473;DHT22;17263;48.160;11.452;2023-03-14T00:59:40;10.30;99.90
30473;DHT22;17263;48.160;11.452;2023-03-14T01:02:06;10.30;99.90
30473;DHT22;17263;48.160;11.452;2023-03-14T01:04:32;10.30;99.90
30473;DHT22;17263;48.160;11.452;2023-03-14T01:06:58;10.30;99.90
30473;DHT22;17263;48.160;11.452;2023-03-14T01:09:24;10.30;99.90
30473;DHT22;17263;48.160;11.452;2023-03-14T01:11:50;10.30;99.90
30473;DHT22;17263;48.160;11.452;2023-03-14T01:14:16;10.30;99.90
30473;DHT22;17263;48.160;11.452;2023-03-14T01:16:42;10.30;99.90
30473;DHT22;17263;48.160;11.452;2023-03-14T01:19:09;10.30;99.90
30473;DHT22;17263;48.160;11.452;2023-03-14T01:21:35;10.30;99.90
30473;DHT22;17263;48.160;11.452;2023-03-14T01:24:03;10.30;99.90
30473;DHT22;17263;48.160;11.452;2023-03-14T01:26:31;10.20;99.90
30473;DHT22;17263;48.160;11.452;2023-03-14T01:28:57;10.20;99.90
30473;DHT22;17263;48.160;11.452;2023-03-14T01:31:24;10.20;99.90
30473;DHT22;17263;48.160;11.452;2023-03-14T01:33:51;10.20;99.90
30473;DHT22;17263;48.160;11.452;2023-03-14T01:36:17;10.20;99.90
30473;DHT22;17263;48.160;11.452;2023-03-14T01:38:43;10.20;99.90
30473;DHT22;17263;48.160;11.452;2023-03-14T01:41:14;10.20;99.90
30473;DHT22;17263;48.160;11.452;2023-03-14T01:43:40;10.10;99.90
30473;DHT22;17263;48.160;11.452;2023-03-14T01:48:47;10.10;99.90
30473;DHT22;17263;48.160;11.452;2023-03-14T01:51:28;10.10;99.90
30473;DHT22;17263;48.160;11.452;2023-03-14T01:54:08;10.00;99.90
30473;DHT22;17263;48.160;11.452;2023-03-14T01:56:36;10.00;99.90
30473;DHT22;17263;48.160;11.452;2023-03-14T01:59:06;10.00;99.90
30473;DHT22;17263;48.160;11.452;2023-03-14T02:01:34;10.00;99.90
30473;DHT22;17263;48.160;11.452;2023-03-14T02:04:03;9.90;99.90
30473;DHT22;17263;48.160;11.452;2023-03-14T02:06:44;9.90;99.90
30473;DHT22;17263;48.160;11.452;2023-03-14T02:09:11;9.90;99.90
30473;DHT22;17263;48.160;11.452;2023-03-14T02:11:37;9.80;99.90
30473;DHT22;17263;48.160;11.452;2023-03-14T02:14:04;9.70;99.90
30473;DHT22;17263;48.160;11.452;2023-03-14T02:16:31;9.70;99.90
30473;DHT22;17263;48.160;11.452;2023-03-14T02:18:57;9.70;99.90
30473;DHT22;17263;48.160;11.452;2023-03-14T02:21:24;9.50;99.90
30473;DHT22;17263;48.160;11.452;2023-03-14T02:24:19;9.60;99.90
30473;DHT22;17263;48.160;11.452;2023-03-14T02:27:13;9.50;99.90
30473;DHT22;17263;48.160;11.452;2023-03-14T02:32:15;9.30;99.90
30473;DHT22;17263;48.160;11.452;2023-03-14T02:34:43;9.30;99.90
30473;DHT22;17263;48.160;11.452;2023-03-14T02:37:11;9.20;99.90
30473;DHT22;17263;48.160;11.452;2023-03-14T02:39:42;9.20;99.90
30473;DHT22;17263;48.160;11.452;2023-03-14T02:42:11;9.20;99.90
30473;DHT22;17263;48.160;11.452;2023-03-14T02:44:50;9.10;99.90
30473;DHT22;17263;48.160;11.452;2023-03-14T02:47:18;9.10;99.90
30473;DHT22;17263;48.160;11.452;2023-03-14T02:49:46;9.00;99.90
30473;DHT22;17263;48.160;11.452;2023-03-14T02:52:13;9.00;99.90
30473;DHT22;17263;48.160;11.452;2023-03-14T02:54:39;9.00;99.90
30473;DHT22;17263;48.160;11.452;2023-03-14T02:57:05;9.10;99.90
30473;DHT22;17263;48.160;11.452;2023-03-14T02:59:31;9.10;99.90
30473;DHT22;17263;48.160;11.452;2023-03-14T03:01:57;9.10;99.90
30473;DHT22;17263;48.160;11.452;2023-03-14T03:04:25;9.10;99.90
30473;DHT22;17263;48.160;11.452;2023-03-14T03:06:51;9.10;99.90
30473;DHT22;17263;48.160;11.452;2023-03-14T03:09:17;9.10;99.90
30473;DHT22;17263;48.160;11.452;2023-03-14T03:11:43;9.10;99.90
30473;DHT22;17263;48.160;11.452;2023-03-14T03:14:09;9.20;99.90
30473;DHT22;17263;48.160;11.452;2023-03-14T03:16:35;9.10;99.90
30473;DHT22;17263;48.160;11.452;2023-03-14T03:19:01;9.10;99.90
30473;DHT22;17263;48.160;11.452;2023-03-14T03:21:27;9.00;99.90
30473;DHT22;17263;48.160;11.452;2023-03-14T03:23:53;9.00;99.90
30473;DHT22;17263;48.160;11.452;2023-03-14T03:26:19;9.00;99.90
30473;DHT22;17263;48.160;11.452;2023-03-14T03:28:45;9.00;99.90
30473;DHT22;17263;48.160;11.452;2023-03-14T03:31:12;8.90;99.90
30473;DHT22;17263;48.160;11.452;2023-03-14T03:33:38;8.90;99.90
30473;DHT22;17263;48.160;11.452;2023-03-14T03:36:04;8.90;99.90
30473;DHT22;17263;48.160;11.452;2023-03-14T03:38:31;8.90;99.90
30473;DHT22;17263;48.160;11.452;2023-03-14T03:40:57;8.90;99.90
30473;DHT22;17263;48.160;11.452;2023-03-14T03:43:23;8.90;99.90
30473;DHT22;17263;48.160;11.452;2023-03-14T03:45:49;8.90;99.90
30473;DHT22;17263;48.160;11.452;2023-03-14T03:48:15;8.90;99.90
30473;DHT22;17263;48.160;11.452;2023-03-14T03:50:45;8.90;99.90
30473;DHT22;17263;48.160;11.452;2023-03-14T03:53:11;8.90;99.90
30473;DHT22;17263;48.160;11.452;2023-03-14T03:55:40;8.80;99.90
30473;DHT22;17263;48.160;11.452;2023-03-14T03:58:06;8.80;99.90
30473;DHT22;17263;48.160;11.452;2023-03-14T04:00:32;8.80;99.90
30473;DHT22;17263;48.160;11.452;2023-03-14T04:02:58;8.80;99.90
30473;DHT22;17263;48.160;11.452;2023-03-14T04:05:25;8.70;99.90
30473;DHT22;17263;48.160;11.452;2023-03-14T04:07:51;8.80;99.90
30473;DHT22;17263;48.160;11.452;2023-03-14T04:10:17;8.80;99.90
30473;DHT22;17263;48.160;11.452;2023-03-14T04:12:43;8.80;99.90
30473;DHT22;17263;48.160;11.452;2023-03-14T04:15:09;8.80;99.90
30473;DHT22;17263;48.160;11.452;2023-03-14T04:17:35;8.80;99.90
30473;DHT22;17263;48.160;11.452;2023-03-14T04:20:02;8.80;99.90
30473;DHT22;17263;48.160;11.452;2023-03-14T04:22:28;8.80;99.90
30473;DHT22;17263;48.160;11.452;2023-03-14T04:24:54;8.80;99.90
30473;DHT22;17263;48.160;11.452;2023-03-14T04:27:20;8.70;99.90
30473;DHT22;17263;48.160;11.452;2023-03-14T04:29:46;8.70;99.90
30473;DHT22;17263;48.160;11.452;2023-03-14T04:32:12;8.70;99.90
30473;DHT22;17263;48.160;11.452;2023-03-14T04:34:38;8.60;99.90
30473;DHT22;17263;48.160;11.452;2023-03-14T04:37:04;8.60;99.90
30473;DHT22;17263;48.160;11.452;2023-03-14T04:39:30;8.60;99.90
30473;DHT22;17263;48.160;11.452;2023-03-14T04:41:56;8.60;99.90
30473;DHT22;17263;48.160;11.452;2023-03-14T04:44:22;8.60;99.90
30473;DHT22;17263;48.160;11.452;2023-03-14T04:46:48;8.60;99.90
30473;DHT22;17263;48.160;11.452;2023-03-14T04:49:14;8.60;99.90
30473;DHT22;17263;48.160;11.452;2023-03-14T04:51:40;8.60;99.90
30473;DHT22;17263;48.160;11.452;2023-03-14T04:54:07;8.50;99.90
30473;DHT22;17263;48.160;11.452;2023-03-14T04:56:33;8.50;99.90
30473;DHT22;17263;48.160;11.452;2023-03-14T04:58:59;8.50;99.90
30473;DHT22;17263;48.160;11.452;2023-03-14T05:01:25;8.50;99.90
30473;DHT22;17263;48.160;11.452;2023-03-14T05:03:51;8.50;99.90
30473;DHT22;17263;48.160;11.452;2023-03-14T05:06:17;8.50;99.90
30473;DHT22;17263;48.160;11.452;2023-03-14T05:08:43;8.40;99.90
30473;DHT22;17263;48.160;11.452;2023-03-14T05:11:11;8.50;99.90
30473;DHT22;17263;48.160;11.452;2023-03-14T05:13:38;8.50;99.90
30473;DHT22;17263;48.160;11.452;2023-03-14T05:16:10;8.50;99.90
30473;DHT22;17263;48.160;11.452;2023-03-14T05:18:37;8.50;99.90
30473;DHT22;17263;48.160;11.452;2023-03-14T05:21:03;8.40;99.90
30473;DHT22;17263;48.160;11.452;2023-03-14T05:23:30;8.30;99.90
30473;DHT22;17263;48.160;11.452;2023-03-14T05:25:56;8.30;99.90
30473;DHT22;17263;48.160;11.452;2023-03-14T05:28:22;8.30;99.90
30473;DHT22;17263;48.160;11.452;2023-03-14T05:30:48;8.30;99.90
30473;DHT22;17263;48.160;11.452;2023-03-14T05:33:14;8.30;99.90
30473;DHT22;17263;48.160;11.452;2023-03-14T05:35:41;8.30;99.90
30473;DHT22;17263;48.160;11.452;2023-03-14T05:38:07;8.30;99.90
30473;DHT22;17263;48.160;11.452;2023-03-14T05:40:34;8.30;99.90
30473;DHT22;17263;48.160;11.452;2023-03-14T05:43:00;8.30;99.90
30473;DHT22;17263;48.160;11.452;2023-03-14T05:45:26;8.30;99.90
30473;DHT22;17263;48.160;11.452;2023-03-14T05:47:52;8.30;99.90
30473;DHT22;17263;48.160;11.452;2023-03-14T05:50:18;8.30;99.90
30473;DHT22;17263;48.160;11.452;2023-03-14T05:52:44;8.30;99.90
30473;DHT22;17263;48.160;11.452;2023-03-14T05:55:10;8.30;99.90
30473;DHT22;17263;48.160;11.452;2023-03-14T05:57:36;8.30;99.90
30473;DHT22;17263;48.160;11.452;2023-03-14T06:00:03;8.30;99.90
30473;DHT22;17263;48.160;11.452;2023-03-14T06:02:29;8.30;99.90
30473;DHT22;17263;48.160;11.452;2023-03-14T06:04:55;8.30;99.90
30473;DHT22;17263;48.160;11.452;2023-03-14T06:07:21;8.30;99.90
30473;DHT22;17263;48.160;11.452;2023-03-14T06:09:47;8.30;99.90
30473;DHT22;17263;48.160;11.452;2023-03-14T06:12:13;8.30;99.90
30473;DHT22;17263;48.160;11.452;2023-03-14T06:14:39;8.30;99.90
30473;DHT22;17263;48.160;11.452;2023-03-14T06:17:05;8.30;99.90
30473;DHT22;17263;48.160;11.452;2023-03-14T06:19:31;8.30;99.90
30473;DHT22;17263;48.160;11.452;2023-03-14T06:21:57;8.30;99.90
30473;DHT22;17263;48.160;11.452;2023-03-14T06:24:23;8.30;99.90
30473;DHT22;17263;48.160;11.452;2023-03-14T06:26:49;8.30;99.90
30473;DHT22;17263;48.160;11.452;2023-03-14T06:29:15;8.30;99.90
30473;DHT22;17263;48.160;11.452;2023-03-14T06:31:41;8.30;99.90
30473;DHT22;17263;48.160;11.452;2023-03-14T06:34:07;8.40;99.90
30473;DHT22;17263;48.160;11.452;2023-03-14T06:36:33;8.40;99.90
30473;DHT22;17263;48.160;11.452;2023-03-14T06:38:59;8.50;99.90
30473;DHT22;17263;48.160;11.452;2023-03-14T06:41:25;8.50;99.90
30473;DHT22;17263;48.160;11.452;2023-03-14T06:43:52;8.50;99.90
30473;DHT22;17263;48.160;11.452;2023-03-14T06:46:18;8.50;99.90
30473;DHT22;17263;48.160;11.452;2023-03-14T06:48:44;8.60;99.90
30473;DHT22;17263;48.160;11.452;2023-03-14T06:51:10;8.60;99.90
30473;DHT22;17263;48.160;11.452;2023-03-14T06:53:36;8.60;99.90
30473;DHT22;17263;48.160;11.452;2023-03-14T06:56:03;8.60;99.90
30473;DHT22;17263;48.160;11.452;2023-03-14T06:58:29;8.70;99.90
30473;DHT22;17263;48.160;11.452;2023-03-14T07:00:55;8.70;99.90
30473;DHT22;17263;48.160;11.452;2023-03-14T07:03:22;8.80;99.90
30473;DHT22;17263;48.160;11.452;2023-03-14T07:05:48;8.80;99.90
30473;DHT22;17263;48.160;11.452;2023-03-14T07:08:14;8.80;99.90
30473;DHT22;17263;48.160;11.452;2023-03-14T07:10:40;8.80;99.90
30473;DHT22;17263;48.160;11.452;2023-03-14T07:13:06;8.90;99.90
30473;DHT22;17263;48.160;11.452;2023-03-14T07:15:32;8.90;99.90
30473;DHT22;17263;48.160;11.452;2023-03-14T07:17:58;8.90;99.90
30473;DHT22;17263;48.160;11.452;2023-03-14T07:20:24;8.90;99.90
30473;DHT22;17263;48.160;11.452;2023-03-14T07:22:51;8.90;99.90
30473;DHT22;17263;48.160;11.452;2023-03-14T07:25:17;8.90;99.90
30473;DHT22;17263;48.160;11.452;2023-03-14T07:27:44;8.90;99.90
30473;DHT22;17263;48.160;11.452;2023-03-14T07:30:11;9.00;99.90
30473;DHT22;17263;48.160;11.452;2023-03-14T07:32:37;9.00;99.90
30473;DHT22;17263;48.160;11.452;2023-03-14T07:35:04;8.90;99.90
30473;DHT22;17263;48.160;11.452;2023-03-14T07:37:30;9.00;99.90
30473;DHT22;17263;48.160;11.452;2023-03-14T07:39:56;9.00;99.90
30473;DHT22;17263;48.160;11.452;2023-03-14T07:42:22;9.00;99.90
30473;DHT22;17263;48.160;11.452;2023-03-14T07:44:48;9.00;99.90
30473;DHT22;17263;48.160;11.452;2023-03-14T07:47:14;9.10;99.90
30473;DHT22;17263;48.160;11.452;2023-03-14T07:49:40;9.10;99.90
30473;DHT22;17263;48.160;11.452;2023-03-14T07:52:06;9.20;99.90
30473;DHT22;17263;48.160;11.452;2023-03-14T07:54:32;9.30;99.90
30473;DHT22;17263;48.160;11.452;2023-03-14T07:56:58;9.30;99.90
30473;DHT22;17263;48.160;11.452;2023-03-14T07:59:27;9.40;99.90
30473;DHT22;17263;48.160;11.452;2023-03-14T08:01:53;9.40;99.90
30473;DHT22;17263;48.160;11.452;2023-03-14T08:04:19;9.50;99.90
30473;DHT22;17263;48.160;11.452;2023-03-14T08:06:45;9.60;99.90
30473;DHT22;17263;48.160;11.452;2023-03-14T08:09:11;9.60;99.90
30473;DHT22;17263;48.160;11.452;2023-03-14T08:11:37;9.70;99.90
30473;DHT22;17263;48.160;11.452;2023-03-14T08:14:03;9.70;99.90
30473;DHT22;17263;48.160;11.452;2023-03-14T08:16:29;9.90;99.90
30473;DHT22;17263;48.160;11.452;2023-03-14T08:18:55;10.00;99.90
30473;DHT22;17263;48.160;11.452;2023-03-14T08:21:22;10.10;99.90
30473;DHT22;17263;48.160;11.452;2023-03-14T08:23:48;10.20;99.90
30473;DHT22;17263;48.160;11.452;2023-03-14T08:26:14;10.20;99.90
30473;DHT22;17263;48.160;11.452;2023-03-14T08:28:40;10.30;99.90
30473;DHT22;17263;48.160;11.452;2023-03-14T08:31:06;10.30;99.90
30473;DHT22;17263;48.160;11.452;2023-03-14T08:33:32;10.30;99.90
30473;DHT22;17263;48.160;11.452;2023-03-14T08:35:59;10.30;99.90
30473;DHT22;17263;48.160;11.452;2023-03-14T08:38:26;10.50;99.90
30473;DHT22;17263;48.160;11.452;2023-03-14T08:40:57;10.50;99.90
30473;DHT22;17263;48.160;11.452;2023-03-14T08:43:24;10.50;99.90
30473;DHT22;17263;48.160;11.452;2023-03-14T08:45:50;10.50;99.90
30473;DHT22;17263;48.160;11.452;2023-03-14T08:48:16;10.50;99.90
30473;DHT22;17263;48.160;11.452;2023-03-14T08:50:42;10.60;99.90
30473;DHT22;17263;48.160;11.452;2023-03-14T08:53:09;10.70;99.90
30473;DHT22;17263;48.160;11.452;2023-03-14T08:55:35;10.70;99.90
30473;DHT22;17263;48.160;11.452;2023-03-14T08:58:01;10.80;99.90
30473;DHT22;17263;48.160;11.452;2023-03-14T09:00:28;10.70;99.90
30473;DHT22;17263;48.160;11.452;2023-03-14T09:02:54;10.70;99.90
30473;DHT22;17263;48.160;11.452;2023-03-14T09:05:20;10.80;99.90
30473;DHT22;17263;48.160;11.452;2023-03-14T09:07:46;10.80;99.90
30473;DHT22;17263;48.160;11.452;2023-03-14T09:10:12;10.90;99.90
30473;DHT22;17263;48.160;11.452;2023-03-14T09:12:38;10.90;99.90
30473;DHT22;17263;48.160;11.452;2023-03-14T09:15:04;11.00;99.90
30473;DHT22;17263;48.160;11.452;2023-03-14T09:17:30;11.10;99.90
30473;DHT22;17263;48.160;11.452;2023-03-14T09:19:56;11.20;99.90
30473;DHT22;17263;48.160;11.452;2023-03-14T09:22:22;11.10;99.90
30473;DHT22;17263;48.160;11.452;2023-03-14T09:24:48;11.10;99.90
30473;DHT22;17263;48.160;11.452;2023-03-14T09:27:14;11.10;99.90
30473;DHT22;17263;48.160;11.452;2023-03-14T09:29:40;11.00;99.90
30473;DHT22;17263;48.160;11.452;2023-03-14T09:32:06;11.00;99.90
30473;DHT22;17263;48.160;11.452;2023-03-14T09:34:32;11.00;99.90
30473;DHT22;17263;48.160;11.452;2023-03-14T09:36:59;11.00;99.90
30473;DHT22;17263;48.160;11.452;2023-03-14T09:39:26;10.90;99.90
30473;DHT22;17263;48.160;11.452;2023-03-14T09:41:53;11.00;99.90
30473;DHT22;17263;48.160;11.452;2023-03-14T09:44:29;10.90;99.90
30473;DHT22;17263;48.160;11.452;2023-03-14T09:47:01;11.00;99.90
30473;DHT22;17263;48.160;11.452;2023-03-14T09:49:31;11.00;99.90
30473;DHT22;17263;48.160;11.452;2023-03-14T09:52:05;11.00;99.90
30473;DHT22;17263;48.160;11.452;2023-03-14T09:54:37;11.00;99.90
30473;DHT22;17263;48.160;11.452;2023-03-14T09:57:05;11.10;99.90
30473;DHT22;17263;48.160;11.452;2023-03-14T09:59:33;11.10;99.90
30473;DHT22;17263;48.160;11.452;2023-03-14T10:02:02;11.10;99.90
30473;DHT22;17263;48.160;11.452;2023-03-14T10:04:38;11.00;99.90
30473;DHT22;17263;48.160;11.452;2023-03-14T10:07:13;11.20;99.90
30473;DHT22;17263;48.160;11.452;2023-03-14T10:09:42;11.30;99.90
30473;DHT22;17263;48.160;11.452;2023-03-14T10:12:08;11.40;99.90
30473;DHT22;17263;48.160;11.452;2023-03-14T10:14:49;11.60;99.90
30473;DHT22;17263;48.160;11.452;2023-03-14T10:17:17;11.80;99.90
30473;DHT22;17263;48.160;11.452;2023-03-14T10:19:58;12.10;99.90
30473;DHT22;17263;48.160;11.452;2023-03-14T10:22:29;12.40;99.90
30473;DHT22;17263;48.160;11.452;2023-03-14T10:24:59;12.80;99.90
30473;DHT22;17263;48.160;11.452;2023-03-14T10:27:31;13.10;99.90
30473;DHT22;17263;48.160;11.452;2023-03-14T10:30:06;13.20;99.90
30473;DHT22;17263;48.160;11.452;2023-03-14T10:32:38;13.20;99.90
30473;DHT22;17263;48.160;11.452;2023-03-14T10:37:59;13.30;99.90
30473;DHT22;17263;48.160;11.452;2023-03-14T10:40:36;13.30;99.90
30473;DHT22;17263;48.160;11.452;2023-03-14T10:43:05;13.30;99.90
30473;DHT22;17263;48.160;11.452;2023-03-14T10:45:38;13.40;99.90
30473;DHT22;17263;48.160;11.452;2023-03-14T10:48:33;13.40;99.90
30473;DHT22;17263;48.160;11.452;2023-03-14T10:51:10;13.30;99.90
30473;DHT22;17263;48.160;11.452;2023-03-14T10:53:48;13.20;99.90
30473;DHT22;17263;48.160;11.452;2023-03-14T10:56:19;13.10;99.90
30473;DHT22;17263;48.160;11.452;2023-03-14T10:58:51;13.10;99.90
30473;DHT22;17263;48.160;11.452;2023-03-14T11:01:32;13.20;99.90
30473;DHT22;17263;48.160;11.452;2023-03-14T11:04:38;13.20;99.90
30473;DHT22;17263;48.160;11.452;2023-03-14T11:07:24;13.30;99.90
30473;DHT22;17263;48.160;11.452;2023-03-14T11:10:18;13.20;99.90
30473;DHT22;17263;48.160;11.452;2023-03-14T11:16:01;13.30;99.90
30473;DHT22;17263;48.160;11.452;2023-03-14T11:27:16;13.60;99.90
30473;DHT22;17263;48.160;11.452;2023-03-14T11:30:01;13.80;99.90
30473;DHT22;17263;48.160;11.452;2023-03-14T11:35:30;14.00;99.90
30473;DHT22;17263;48.160;11.452;2023-03-14T11:38:26;14.00;99.90
30473;DHT22;17263;48.160;11.452;2023-03-14T11:40:56;14.00;99.90
30473;DHT22;17263;48.160;11.452;2023-03-14T11:43:38;14.00;99.90
30473;DHT22;17263;48.160;11.452;2023-03-14T11:46:34;13.90;99.90
30473;DHT22;17263;48.160;11.452;2023-03-14T11:49:22;13.80;99.90
30473;DHT22;17263;48.160;11.452;2023-03-14T11:51:57;13.70;99.90
30473;DHT22;17263;48.160;11.452;2023-03-14T11:57:15;13.40;99.90
30473;DHT22;17263;48.160;11.452;2023-03-14T12:10:55;13.20;99.90
30473;DHT22;17263;48.160;11.452;2023-03-14T12:13:28;13.10;99.90
30473;DHT22;17263;48.160;11.452;2023-03-14T12:16:00;13.00;99.90
30473;DHT22;17263;48.160;11.452;2023-03-14T12:18:31;12.90;99.90
30473;DHT22;17263;48.160;11.452;2023-03-14T12:21:00;12.90;99.90
30473;DHT22;17263;48.160;11.452;2023-03-14T12:23:33;12.90;99.90
30473;DHT22;17263;48.160;11.452;2023-03-14T12:28:48;13.00;99.90
30473;DHT22;17263;48.160;11.452;2023-03-14T12:39:47;13.50;99.90
30473;DHT22;17263;48.160;11.452;2023-03-14T12:45:30;13.70;99.90
30473;DHT22;17263;48.160;11.452;2023-03-14T12:48:14;13.70;99.90
30473;DHT22;17263;48.160;11.452;2023-03-14T12:50:56;13.60;99.90
30473;DHT22;17263;48.160;11.452;2023-03-14T12:53:40;13.50;99.90
30473;DHT22;17263;48.160;11.452;2023-03-14T12:56:22;13.40;99.90
30473;DHT22;17263;48.160;11.452;2023-03-14T12:59:02;13.20;99.90
30473;DHT22;17263;48.160;11.452;2023-03-14T13:01:33;13.20;99.90
30473;DHT22;17263;48.160;11.452;2023-03-14T13:04:07;13.10;99.90
30473;DHT22;17263;48.160;11.452;2023-03-14T13:06:55;13.00;99.90
30473;DHT22;17263;48.160;11.452;2023-03-14T13:11:53;13.00;99.90
30473;DHT22;17263;48.160;11.452;2023-03-14T13:14:20;13.00;99.90
30473;DHT22;17263;48.160;11.452;2023-03-14T13:16:49;13.00;99.90
30473;DHT22;17263;48.160;11.452;2023-03-14T13:19:27;12.80;99.90
30473;DHT22;17263;48.160;11.452;2023-03-14T13:22:04;12.80;99.90
30473;DHT22;17263;48.160;11.452;2023-03-14T13:24:33;12.80;99.90
30473;DHT22;17263;48.160;11.452;2023-03-14T13:27:00;12.80;99.90
30473;DHT22;17263;48.160;11.452;2023-03-14T13:29:32;12.80;99.90
30473;DHT22;17263;48.160;11.452;2023-03-14T13:32:00;12.70;99.90
30473;DHT22;17263;48.160;11.452;2023-03-14T13:34:32;12.60;99.90
30473;DHT22;17263;48.160;11.452;2023-03-14T13:36:58;12.50;99.90
30473;DHT22;17263;48.160;11.452;2023-03-14T13:39:26;12.40;99.90
30473;DHT22;17263;48.160;11.452;2023-03-14T13:42:01;12.30;99.90
30473;DHT22;17263;48.160;11.452;2023-03-14T13:44:31;12.20;99.90
30473;DHT22;17263;48.160;11.452;2023-03-14T13:46:59;11.90;99.90
30473;DHT22;17263;48.160;11.452;2023-03-14T13:49:27;11.70;99.90
30473;DHT22;17263;48.160;11.452;2023-03-14T13:51:54;11.50;99.90
30473;DHT22;17263;48.160;11.452;2023-03-14T13:54:22;11.40;99.90
30473;DHT22;17263;48.160;11.452;2023-03-14T13:56:49;11.40;99.90
30473;DHT22;17263;48.160;11.452;2023-03-14T13:59:26;11.40;99.90
30473;DHT22;17263;48.160;11.452;2023-03-14T14:01:53;11.30;99.90
30473;DHT22;17263;48.160;11.452;2023-03-14T14:04:24;11.10;99.90
30473;DHT22;17263;48.160;11.452;2023-03-14T14:07:07;11.10;99.90
30473;DHT22;17263;48.160;11.452;2023-03-14T14:09:39;10.90;99.90
30473;DHT22;17263;48.160;11.452;2023-03-14T14:12:28;10.70;99.90
30473;DHT22;17263;48.160;11.452;2023-03-14T14:17:37;10.40;99.90
30473;DHT22;17263;48.160;11.452;2023-03-14T14:20:08;10.20;99.90
30473;DHT22;17263;48.160;11.452;2023-03-14T14:22:34;10.10;99.90
30473;DHT22;17263;48.160;11.452;2023-03-14T14:25:01;10.00;99.90
30473;DHT22;17263;48.160;11.452;2023-03-14T14:27:32;9.90;99.90
30473;DHT22;17263;48.160;11.452;2023-03-14T14:30:04;9.70;99.90
30473;DHT22;17263;48.160;11.452;2023-03-14T14:32:38;9.70;99.90
30473;DHT22;17263;48.160;11.452;2023-03-14T14:35:05;9.60;99.90
30473;DHT22;17263;48.160;11.452;2023-03-14T14:37:33;9.50;99.90
30473;DHT22;17263;48.160;11.452;2023-03-14T14:40:10;9.30;99.90
30473;DHT22;17263;48.160;11.452;2023-03-14T14:42:41;9.30;99.90
30473;DHT22;17263;48.160;11.452;2023-03-14T14:45:17;9.10;99.90
30473;DHT22;17263;48.160;11.452;2023-03-14T14:47:55;9.10;99.90
30473;DHT22;17263;48.160;11.452;2023-03-14T14:50:34;9.00;99.90
30473;DHT22;17263;48.160;11.452;2023-03-14T14:53:18;8.90;99.90
30473;DHT22;17263;48.160;11.452;2023-03-14T14:55:49;8.90;99.90
30473;DHT22;17263;48.160;11.452;2023-03-14T14:58:29;8.80;99.90
30473;DHT22;17263;48.160;11.452;2023-03-14T15:01:14;8.70;99.90
30473;DHT22;17263;48.160;11.452;2023-03-14T15:03:46;8.60;99.90
30473;DHT22;17263;48.160;11.452;2023-03-14T15:06:14;8.60;99.90
30473;DHT22;17263;48.160;11.452;2023-03-14T15:08:43;8.70;99.90
30473;DHT22;17263;48.160;11.452;2023-03-14T15:11:20;8.80;99.90
30473;DHT22;17263;48.160;11.452;2023-03-14T15:13:48;8.80;99.90
30473;DHT22;17263;48.160;11.452;2023-03-14T15:16:24;8.90;99.90
30473;DHT22;17263;48.160;11.452;2023-03-14T15:18:58;8.90;99.90
30473;DHT22;17263;48.160;11.452;2023-03-14T15:21:26;8.90;99.90
30473;DHT22;17263;48.160;11.452;2023-03-14T15:23:53;8.90;99.90
30473;DHT22;17263;48.160;11.452;2023-03-14T15:26:22;8.90;99.90
30473;DHT22;17263;48.160;11.452;2023-03-14T15:28:48;8.90;99.90
30473;DHT22;17263;48.160;11.452;2023-03-14T15:31:16;8.80;99.90
30473;DHT22;17263;48.160;11.452;2023-03-14T15:33:44;8.70;99.90
30473;DHT22;17263;48.160;11.452;2023-03-14T15:36:28;8.60;99.90
30473;DHT22;17263;48.160;11.452;2023-03-14T15:38:55;8.50;99.90
30473;DHT22;17263;48.160;11.452;2023-03-14T15:41:22;8.40;99.90
30473;DHT22;17263;48.160;11.452;2023-03-14T15:43:48;8.30;99.90
30473;DHT22;17263;48.160;11.452;2023-03-14T15:46:15;8.20;99.90
30473;DHT22;17263;48.160;11.452;2023-03-14T15:48:44;8.20;99.90
30473;DHT22;17263;48.160;11.452;2023-03-14T15:51:10;8.20;99.90
30473;DHT22;17263;48.160;11.452;2023-03-14T15:53:37;8.10;99.90
30473;DHT22;17263;48.160;11.452;2023-03-14T15:56:04;8.10;99.90
30473;DHT22;17263;48.160;11.452;2023-03-14T15:58:31;8.10;99.90
30473;DHT22;17263;48.160;11.452;2023-03-14T16:01:01;8.10;99.90
30473;DHT22;17263;48.160;11.452;2023-03-14T16:03:28;8.10;99.90
30473;DHT22;17263;48.160;11.452;2023-03-14T16:05:54;8.10;99.90
30473;DHT22;17263;48.160;11.452;2023-03-14T16:08:22;8.10;99.90
30473;DHT22;17263;48.160;11.452;2023-03-14T16:10:48;8.00;99.90
30473;DHT22;17263;48.160;11.452;2023-03-14T16:13:15;8.00;99.90
30473;DHT22;17263;48.160;11.452;2023-03-14T16:15:41;8.00;99.90
30473;DHT22;17263;48.160;11.452;2023-03-14T16:18:07;8.00;99.90
30473;DHT22;17263;48.160;11.452;2023-03-14T16:20:33;8.00;99.90
30473;DHT22;17263;48.160;11.452;2023-03-14T16:22:59;8.00;99.90
30473;DHT22;17263;48.160;11.452;2023-03-14T16:25:25;8.00;99.90
30473;DHT22;17263;48.160;11.452;2023-03-14T16:27:51;8.00;99.90
30473;DHT22;17263;48.160;11.452;2023-03-14T16:30:17;8.10;99.90
30473;DHT22;17263;48.160;11.452;2023-03-14T16:32:45;8.10;99.90